createdAt,value
2023-04-18T00:02:38.808Z,20.80
2023-04-18T00:07:31.225Z,19.47
2023-04-18T00:12:23.256Z,20.27
2023-04-18T00:17:16.145Z,22.03
2023-04-18T00:22:08.475Z,20.67
2023-04-18T00:27:01.638Z,22.70
2023-04-18T00:31:53.878Z,23.93
2023-04-18T00:36:46.653Z,21.77
2023-04-18T00:41:38.755Z,23.07
2023-04-18T00:46:30.874Z,22.87
2023-04-18T00:51:22.965Z,22.43
2023-04-18T00:56:14.978Z,22.67
2023-04-18T01:01:07.966Z,24.17
2023-04-18T01:12:01.976Z,23.70
2023-04-18T01:16:55.664Z,24.20
2023-04-18T01:21:48.054Z,24.20
2023-04-18T01:26:41.298Z,24.73
2023-04-18T01:31:41.131Z,25.37
2023-04-18T01:36:34.030Z,25.60
2023-04-18T01:41:29.783Z,25.80
2023-04-18T01:46:21.892Z,28.67
2023-04-18T01:51:14.229Z,27.93
2023-04-18T01:56:06.498Z,27.57
2023-04-18T02:01:00.308Z,25.53
2023-04-18T02:05:52.429Z,27.43
2023-04-18T02:10:44.574Z,27.07
2023-04-18T02:15:36.831Z,26.70
2023-04-18T02:20:33.625Z,25.43
2023-04-18T02:25:30.062Z,28.37
2023-04-18T02:30:23.045Z,27.30
2023-04-18T02:35:15.152Z,26.07
2023-04-18T02:40:09.186Z,25.67
2023-04-18T02:45:02.616Z,26.03
2023-04-18T02:49:55.356Z,26.57
2023-04-18T02:54:47.710Z,23.77
2023-04-18T02:59:45.748Z,23.83
2023-04-18T03:04:37.817Z,22.47
2023-04-18T03:09:33.156Z,22.20
2023-04-18T03:14:30.430Z,22.37
2023-04-18T03:19:22.899Z,20.93
2023-04-18T03:24:17.026Z,23.40
2023-04-18T03:29:13.717Z,24.87
2023-04-18T03:34:08.851Z,26.10
2023-04-18T03:39:01.328Z,25.33
2023-04-18T03:43:53.543Z,26.93
2023-04-18T03:48:45.752Z,24.50
2023-04-18T03:53:37.898Z,24.00
2023-04-18T03:58:30.230Z,27.40
2023-04-18T04:03:22.401Z,26.13
2023-04-18T04:08:15.513Z,25.77
2023-04-18T04:13:07.535Z,26.20
2023-04-18T04:18:05.498Z,24.57
2023-04-18T04:23:01.301Z,25.57
2023-04-18T04:27:55.681Z,24.10
2023-04-18T04:32:49.640Z,26.60
2023-04-18T04:37:42.318Z,25.33
2023-04-18T04:42:44.879Z,25.17
2023-04-18T04:47:43.162Z,24.33
2023-04-18T04:52:35.312Z,26.80
2023-04-18T04:57:28.478Z,26.87
2023-04-18T05:02:23.310Z,26.53
2023-04-18T05:07:15.751Z,24.50
2023-04-18T05:12:08.086Z,24.07
2023-04-18T05:17:00.300Z,23.93
2023-04-18T05:21:52.394Z,22.20
2023-04-18T05:26:44.522Z,22.40
2023-04-18T05:31:36.748Z,22.23
2023-04-18T05:36:28.986Z,20.60
2023-04-18T05:41:20.971Z,18.60
2023-04-18T05:46:14.139Z,18.10
2023-04-18T05:51:06.429Z,16.93
2023-04-18T05:56:00.360Z,17.03
2023-04-18T06:00:54.042Z,16.00
2023-04-18T06:05:46.168Z,18.67
2023-04-18T06:10:39.199Z,17.63
2023-04-18T06:15:31.669Z,20.17
2023-04-18T06:20:23.818Z,20.03
2023-04-18T06:25:16.213Z,20.43
2023-04-18T06:30:08.795Z,22.27
2023-04-18T06:35:02.394Z,21.53
2023-04-18T06:39:55.747Z,22.23
2023-04-18T06:44:47.860Z,21.30
2023-04-18T06:49:39.950Z,21.93
2023-04-18T06:54:32.089Z,20.37
2023-04-18T06:59:24.215Z,19.80
2023-04-18T07:04:16.669Z,19.33
2023-04-18T07:09:09.318Z,20.40
2023-04-18T07:14:01.474Z,18.13
2023-04-18T07:18:53.582Z,21.67
2023-04-18T07:23:45.845Z,19.90
2023-04-18T07:28:37.960Z,19.50
2023-04-18T07:33:33.694Z,19.67
2023-04-18T07:38:25.878Z,20.30
2023-04-18T07:43:19.773Z,18.90
2023-04-18T07:48:13.703Z,20.17
2023-04-18T07:53:06.244Z,16.87
2023-04-18T07:57:58.337Z,18.53
2023-04-18T08:02:50.968Z,17.67
2023-04-18T08:07:43.366Z,18.70
2023-04-18T08:12:36.712Z,16.23
2023-04-18T08:17:29.025Z,15.90
2023-04-18T08:22:21.088Z,18.60
2023-04-18T08:27:13.343Z,16.33
2023-04-18T08:32:07.941Z,18.30
2023-04-18T08:37:00.136Z,16.20
2023-04-18T08:41:59.253Z,15.67
2023-04-18T08:46:52.593Z,17.53
2023-04-18T08:51:47.290Z,17.53
2023-04-18T08:56:41.052Z,17.17
2023-04-18T09:01:58.880Z,15.00
2023-04-18T09:06:53.981Z,24.77
2023-04-18T09:11:46.049Z,17.10
2023-04-18T09:16:47.427Z,17.40
2023-04-18T09:21:41.497Z,26.23
2023-04-18T09:26:37.705Z,21.97
2023-04-18T09:31:30.531Z,18.67
2023-04-18T09:36:24.679Z,22.10
2023-04-18T09:41:20.728Z,25.40
2023-04-18T09:46:14.458Z,33.13
2023-04-18T09:51:16.009Z,32.33
2023-04-18T09:56:23.866Z,25.50
2023-04-18T10:01:16.836Z,22.97
2023-04-18T10:06:11.329Z,20.53
2023-04-18T10:11:03.407Z,20.13
2023-04-18T10:15:56.536Z,18.20
2023-04-18T10:20:48.748Z,19.70
2023-04-18T10:25:41.311Z,17.93
2023-04-18T10:30:54.604Z,18.57
2023-04-18T10:36:05.209Z,20.50
2023-04-18T10:41:33.768Z,23.00
2023-04-18T10:46:32.621Z,27.67
2023-04-18T10:51:24.810Z,24.67
2023-04-18T10:56:16.901Z,24.83
2023-04-18T11:01:13.814Z,23.83
2023-04-18T11:06:06.246Z,23.13
2023-04-18T11:11:00.025Z,22.10
2023-04-18T11:15:53.215Z,20.20
2023-04-18T11:20:50.200Z,20.87
2023-04-18T11:25:45.010Z,21.03
2023-04-18T11:30:40.695Z,19.50
2023-04-18T11:35:40.339Z,20.40
2023-04-18T11:40:32.409Z,22.57
2023-04-18T11:45:24.475Z,22.63
2023-04-18T11:50:16.625Z,20.17
2023-04-18T11:55:19.697Z,20.80
2023-04-18T12:00:12.584Z,21.13
2023-04-18T12:05:06.664Z,19.70
2023-04-18T12:09:59.009Z,21.17
2023-04-18T12:15:08.239Z,20.97
2023-04-18T12:20:10.747Z,20.57
2023-04-18T12:25:10.147Z,21.93
2023-04-18T12:30:02.213Z,19.90
2023-04-18T12:34:55.889Z,20.13
2023-04-18T12:39:47.922Z,21.13
2023-04-18T12:44:40.107Z,25.53
2023-04-18T12:49:32.115Z,29.90
2023-04-18T12:54:25.792Z,19.53
2023-04-18T12:59:18.369Z,18.47
2023-04-18T13:04:12.841Z,19.70
2023-04-18T13:09:05.464Z,18.43
2023-04-18T13:13:58.031Z,18.73
2023-04-18T13:18:50.129Z,19.03
2023-04-18T13:23:42.319Z,17.90
2023-04-18T13:28:34.300Z,19.90
2023-04-18T13:33:26.319Z,18.60
2023-04-18T13:38:18.378Z,16.03
2023-04-18T13:43:12.955Z,16.90
2023-04-18T13:48:05.954Z,18.27
2023-04-18T13:52:58.071Z,18.03
2023-04-18T13:57:50.208Z,17.53
2023-04-18T14:02:42.647Z,15.60
2023-04-18T14:07:35.506Z,15.03
2023-04-18T14:12:27.606Z,15.27
2023-04-18T14:17:19.694Z,13.83
2023-04-18T14:22:12.184Z,14.40
2023-04-18T14:27:04.210Z,14.70
2023-04-18T14:31:56.326Z,13.60
2023-04-18T14:36:48.322Z,13.33
2023-04-18T14:41:40.411Z,12.03
2023-04-18T14:46:32.616Z,11.97
2023-04-18T14:51:24.849Z,10.80
2023-04-18T14:56:20.933Z,21.80
2023-04-18T15:01:13.399Z,20.37
2023-04-18T15:06:05.654Z,27.00
2023-04-18T15:10:58.074Z,15.40
2023-04-18T15:15:54.264Z,15.00
2023-04-18T15:20:47.548Z,15.90
2023-04-18T15:25:40.141Z,16.43
2023-04-18T15:30:32.848Z,17.10
2023-04-18T15:35:25.220Z,16.87
2023-04-18T15:40:18.365Z,17.80
2023-04-18T15:45:11.013Z,19.77
2023-04-18T15:50:03.752Z,17.53
2023-04-18T15:54:57.894Z,17.77
2023-04-18T15:59:50.111Z,16.63
2023-04-18T16:04:42.118Z,16.67
2023-04-18T16:09:34.311Z,16.17
2023-04-18T16:14:26.292Z,16.23
2023-04-18T16:19:18.609Z,16.00
2023-04-18T16:24:10.864Z,35.47
2023-04-18T16:29:02.921Z,32.70
2023-04-18T16:33:55.370Z,19.37
2023-04-18T16:38:48.882Z,16.17
2023-04-18T16:43:40.938Z,16.53
2023-04-18T16:48:32.996Z,16.13
2023-04-18T16:53:25.520Z,16.27
2023-04-18T16:58:17.570Z,15.67
2023-04-18T17:03:10.167Z,14.67
2023-04-18T17:08:03.720Z,15.53
2023-04-18T17:12:56.235Z,15.33
2023-04-18T17:17:48.489Z,15.87
2023-04-18T17:22:41.227Z,14.97
2023-04-18T17:27:33.262Z,15.03
2023-04-18T17:32:25.431Z,15.67
2023-04-18T17:37:17.665Z,15.33
2023-04-18T17:42:10.131Z,15.13
2023-04-18T17:47:02.604Z,14.77
2023-04-18T17:51:54.630Z,14.43
2023-04-18T17:56:46.829Z,14.00
2023-04-18T18:01:39.928Z,13.87
2023-04-18T18:06:32.008Z,13.97
2023-04-18T18:11:24.027Z,14.13
2023-04-18T18:16:16.153Z,14.77
2023-04-18T18:21:08.310Z,15.03
2023-04-18T18:26:00.837Z,14.00
2023-04-18T18:30:53.961Z,14.43
2023-04-18T18:35:46.116Z,15.67
2023-04-18T18:40:38.154Z,17.67
2023-04-18T18:45:30.260Z,14.83
2023-04-18T18:50:24.515Z,16.67
2023-04-18T18:55:16.594Z,16.07
2023-04-18T19:00:13.406Z,17.07
2023-04-18T19:05:06.430Z,18.53
2023-04-18T19:10:01.855Z,18.17
2023-04-18T19:14:55.014Z,18.27
2023-04-18T19:19:46.991Z,18.40
2023-04-18T19:24:39.085Z,20.40
2023-04-18T19:29:32.923Z,22.63
2023-04-18T19:34:25.390Z,19.53
2023-04-18T19:39:18.247Z,20.67
2023-04-18T19:44:10.509Z,21.40
2023-04-18T19:49:02.568Z,20.43
2023-04-18T19:53:55.580Z,18.37
2023-04-18T19:58:49.016Z,19.90
2023-04-18T20:03:41.416Z,22.07
2023-04-18T20:08:36.334Z,21.20
2023-04-18T20:13:28.458Z,20.97
2023-04-18T20:18:21.083Z,24.00
2023-04-18T20:23:14.517Z,22.77
2023-04-18T20:28:06.722Z,21.10
2023-04-18T20:32:58.755Z,21.50
2023-04-18T20:37:50.908Z,21.30
2023-04-18T20:42:43.055Z,22.10
2023-04-18T20:47:35.082Z,20.60
2023-04-18T20:52:27.138Z,21.97
2023-04-18T20:57:19.933Z,21.43
2023-04-18T21:02:12.187Z,19.23
2023-04-18T21:07:04.343Z,18.57
2023-04-18T21:11:57.831Z,20.27
2023-04-18T21:16:49.864Z,20.80
2023-04-18T21:21:41.847Z,20.07
2023-04-18T21:26:33.870Z,20.60
2023-04-18T21:31:27.628Z,17.97
2023-04-18T21:36:20.024Z,18.67
2023-04-18T21:41:15.865Z,18.37
2023-04-18T21:46:08.063Z,19.43
2023-04-18T21:51:00.221Z,17.00
2023-04-18T21:55:52.299Z,16.87
2023-04-18T22:00:44.435Z,18.13
2023-04-18T22:05:37.127Z,18.27
2023-04-18T22:10:29.212Z,19.03
2023-04-18T22:15:22.897Z,20.67
2023-04-18T22:20:14.951Z,18.50
2023-04-18T22:25:11.383Z,19.23
2023-04-18T22:30:04.523Z,19.63
2023-04-18T22:34:56.844Z,17.97
2023-04-18T22:39:48.853Z,18.43
2023-04-18T22:44:41.086Z,19.17
2023-04-18T22:49:33.335Z,16.97
2023-04-18T22:54:25.835Z,18.30
2023-04-18T22:59:17.977Z,17.63
2023-04-18T23:04:10.126Z,16.83
2023-04-18T23:09:03.354Z,17.77
2023-04-18T23:13:55.483Z,18.67
2023-04-18T23:18:47.513Z,18.57
2023-04-18T23:23:39.557Z,16.53
2023-04-18T23:28:31.536Z,16.57
2023-04-18T23:33:23.678Z,13.50
2023-04-18T23:38:16.861Z,11.57
2023-04-18T23:43:08.864Z,10.43
2023-04-18T23:48:00.998Z,10.10
2023-04-18T23:52:53.139Z,9.97
2023-04-18T23:57:45.226Z,9.70
